Time;durP1;ratioP1;P1;durP2;ratioP2;P2;SDS_P1;SDS_P2;PMS_P1;PMS_P2;Temp;Humidity;BMP_temperature;BMP_pressure;BME280_temperature;BME280_humidity;BME280_pressure;Samples;Min_cycle;Max_cycle;Signal;HPM_P1;HPM_P2
2021/03/30 00:01:39;;;;;;;71.60;35.08;;;;;;;;;;5073793;28;20055;-89
2021/03/30 00:04:06;;;;;;;71.75;35.10;;;;;;;;;;5073696;28;20036;-89
2021/03/30 00:06:32;;;;;;;70.30;34.67;;;;;;;;;;5057943;28;20021;-88
2021/03/30 00:08:58;;;;;;;69.97;34.67;;;;;;;;;;5057949;28;20052;-88
2021/03/30 00:11:24;;;;;;;61.47;33.30;;;;;;;;;;5058168;28;20285;-89
2021/03/30 00:13:50;;;;;;;64.30;33.85;;;;;;;;;;5073522;28;20023;-89
2021/03/30 00:16:17;;;;;;;61.72;31.33;;;;;;;;;;5057768;28;20100;-89
2021/03/30 00:18:43;;;;;;;62.10;32.13;;;;;;;;;;5057719;28;20415;-90
2021/03/30 00:21:09;;;;;;;63.42;31.20;;;;;;;;;;5073483;28;20403;-89
2021/03/30 00:23:35;;;;;;;60.15;28.52;;;;;;;;;;5057679;28;20109;-90
2021/03/30 00:26:01;;;;;;;53.25;28.20;;;;;;;;;;5057618;28;20029;-89
2021/03/30 00:28:27;;;;;;;48.38;26.05;;;;;;;;;;5057920;28;20032;-89
2021/03/30 00:30:53;;;;;;;46.03;24.58;;;;;;;;;;5057755;28;20048;-89
2021/03/30 00:33:19;;;;;;;43.70;24.05;;;;;;;;;;5073501;28;20098;-90
2021/03/30 00:35:45;;;;;;;44.28;23.98;;;;;;;;;;5057473;28;20419;-88
2021/03/30 00:38:11;;;;;;;48.05;24.23;;;;;;;;;;5073234;28;20040;-89
2021/03/30 00:40:38;;;;;;;38.88;22.65;;;;;;;;;;5057773;28;20028;-88
2021/03/30 00:43:04;;;;;;;42.75;23.00;;;;;;;;;;5057391;28;20025;-88
2021/03/30 00:45:30;;;;;;;43.67;22.88;;;;;;;;;;5072980;28;20039;-88
2021/03/30 00:47:57;;;;;;;38.10;21.55;;;;;;;;;;5073524;28;20029;-87
2021/03/30 00:50:24;;;;;;;40.58;21.17;;;;;;;;;;5057391;28;20017;-88
2021/03/30 00:52:50;;;;;;;44.42;22.92;;;;;;;;;;5057280;28;20339;-86
2021/03/30 00:55:17;;;;;;;42.65;22.63;;;;;;;;;;5057679;28;20125;-86
2021/03/30 00:57:43;;;;;;;44.45;23.33;;;;;;;;;;5057446;28;20028;-86
2021/03/30 01:00:10;;;;;;;43.15;21.77;;;;;;;;;;5057306;28;20036;-86
2021/03/30 01:02:37;;;;;;;40.75;23.13;;;;;;;;;;5057261;28;20025;-86
2021/03/30 01:05:04;;;;;;;44.70;24.02;;;;;;;;;;5057189;28;20021;-86
2021/03/30 01:07:30;;;;;;;49.20;23.58;;;;;;;;;;5057093;28;20032;-87
2021/03/30 01:09:56;;;;;;;40.75;23.95;;;;;;;;;;5057228;28;20037;-86
2021/03/30 01:12:40;;;;;;;42.95;23.52;;;;;;;;;;5057412;28;20025;-89
2021/03/30 01:15:28;;;;;;;43.65;24.50;;;;;;;;;;5057104;28;20029;-89
2021/03/30 01:18:04;;;;;;;46.28;25.08;;;;;;;;;;5072886;28;20021;-88
2021/03/30 01:20:51;;;;;;;44.42;23.65;;;;;;;;;;5057289;28;20025;-88
2021/03/30 01:23:35;;;;;;;39.55;23.20;;;;;;;;;;5015729;28;20093;-89
2021/03/30 01:26:07;;;;;;;43.88;24.08;;;;;;;;;;5015435;28;20042;-90
2021/03/30 01:28:48;;;;;;;44.60;22.67;;;;;;;;;;5015830;28;20026;-89
2021/03/30 01:31:15;;;;;;;39.25;22.05;;;;;;;;;;5015758;28;20037;-88
2021/03/30 01:33:42;;;;;;;39.83;21.70;;;;;;;;;;5015546;28;20043;-88
2021/03/30 01:36:08;;;;;;;37.85;20.40;;;;;;;;;;5015696;28;20084;-90
2021/03/30 01:38:35;;;;;;;37.83;20.85;;;;;;;;;;5015625;28;20025;-89
2021/03/30 01:41:01;;;;;;;39.78;20.00;;;;;;;;;;5015586;28;20033;-88
2021/03/30 01:43:27;;;;;;;31.45;18.23;;;;;;;;;;5015281;28;20448;-89
2021/03/30 01:45:54;;;;;;;30.05;17.70;;;;;;;;;;5015696;28;20029;-89
2021/03/30 01:48:22;;;;;;;30.27;17.58;;;;;;;;;;5015393;28;20053;-87
2021/03/30 01:50:48;;;;;;;31.55;17.95;;;;;;;;;;5015562;28;20022;-87
2021/03/30 01:53:15;;;;;;;25.85;16.13;;;;;;;;;;5015444;28;20042;-88
2021/03/30 01:55:41;;;;;;;29.73;17.20;;;;;;;;;;5015413;28;20088;-88
2021/03/30 01:58:08;;;;;;;26.55;16.48;;;;;;;;;;5016409;28;20424;-89
2021/03/30 02:00:36;;;;;;;27.25;17.70;;;;;;;;;;5043579;28;20036;-89
2021/03/30 02:03:04;;;;;;;30.13;16.60;;;;;;;;;;5076068;28;20056;-89
2021/03/30 02:05:30;;;;;;;26.38;16.00;;;;;;;;;;5059062;28;20052;-90
2021/03/30 02:07:59;;;;;;;33.83;16.95;;;;;;;;;;5075960;28;20021;-89
2021/03/30 02:10:32;;;;;;;32.47;16.25;;;;;;;;;;5060683;28;20411;-89
2021/03/30 02:13:00;;;;;;;27.40;15.95;;;;;;;;;;5060354;28;20027;-90
2021/03/30 02:15:27;;;;;;;31.92;16.42;;;;;;;;;;5076103;28;20104;-87
2021/03/30 02:18:00;;;;;;;30.83;16.73;;;;;;;;;;5059872;28;20112;-88
2021/03/30 02:20:29;;;;;;;33.45;17.27;;;;;;;;;;5075803;28;20025;-87
2021/03/30 02:23:02;;;;;;;35.30;17.85;;;;;;;;;;5075739;28;20057;-88
2021/03/30 02:25:29;;;;;;;29.63;17.30;;;;;;;;;;5059609;28;20025;-88
2021/03/30 02:27:56;;;;;;;35.40;16.85;;;;;;;;;;5059695;28;20461;-87
2021/03/30 02:30:24;;;;;;;31.17;16.17;;;;;;;;;;5075824;28;20037;-87
2021/03/30 02:32:51;;;;;;;30.23;16.65;;;;;;;;;;5075490;28;20025;-87
2021/03/30 02:35:18;;;;;;;34.35;16.73;;;;;;;;;;5075410;28;20031;-85
2021/03/30 02:37:46;;;;;;;27.55;15.70;;;;;;;;;;5059436;28;20067;-86
2021/03/30 02:40:14;;;;;;;27.35;14.80;;;;;;;;;;5075325;28;20060;-87
2021/03/30 02:42:42;;;;;;;29.75;16.02;;;;;;;;;;5059832;28;20100;-87
2021/03/30 02:45:10;;;;;;;30.98;15.68;;;;;;;;;;5059195;28;20041;-87
2021/03/30 02:47:38;;;;;;;24.35;14.35;;;;;;;;;;5059344;28;20151;-87
2021/03/30 02:50:04;;;;;;;26.23;14.27;;;;;;;;;;5059533;28;20017;-87
2021/03/30 02:52:33;;;;;;;22.85;13.60;;;;;;;;;;5059372;28;20020;-88
2021/03/30 02:54:59;;;;;;;30.13;15.15;;;;;;;;;;5075037;28;20029;-87
2021/03/30 02:57:25;;;;;;;29.17;16.17;;;;;;;;;;5059570;28;20043;-86
2021/03/30 02:59:53;;;;;;;29.38;15.95;;;;;;;;;;5059163;28;20248;-86
2021/03/30 03:02:20;;;;;;;32.28;16.48;;;;;;;;;;5059546;28;20059;-85
2021/03/30 03:04:48;;;;;;;23.90;13.75;;;;;;;;;;5058725;28;20166;-85
2021/03/30 03:07:15;;;;;;;22.50;12.85;;;;;;;;;;5058993;28;20025;-86
2021/03/30 03:09:41;;;;;;;23.60;13.18;;;;;;;;;;5057812;28;20483;-86
2021/03/30 03:12:08;;;;;;;21.73;12.88;;;;;;;;;;5059278;28;20021;-86
2021/03/30 03:14:35;;;;;;;20.73;11.93;;;;;;;;;;5059049;28;20052;-87
2021/03/30 03:17:02;;;;;;;24.38;12.75;;;;;;;;;;5059121;28;20017;-87
2021/03/30 03:19:28;;;;;;;21.95;13.10;;;;;;;;;;5059119;28;20040;-87
2021/03/30 03:21:54;;;;;;;25.27;13.02;;;;;;;;;;5058777;28;20415;-87
2021/03/30 03:24:21;;;;;;;26.23;13.75;;;;;;;;;;5058935;28;20082;-88
2021/03/30 03:26:47;;;;;;;24.30;13.55;;;;;;;;;;5057658;28;20032;-88
2021/03/30 03:29:14;;;;;;;23.33;13.10;;;;;;;;;;5058539;28;20293;-87
2021/03/30 03:31:41;;;;;;;23.15;13.95;;;;;;;;;;5058588;28;20404;-90
2021/03/30 03:34:08;;;;;;;22.70;13.48;;;;;;;;;;5074327;28;20426;-85
2021/03/30 03:36:41;;;;;;;31.42;15.95;;;;;;;;;;5058658;28;20071;-85
2021/03/30 03:39:08;;;;;;;32.33;16.70;;;;;;;;;;5073877;28;20029;-85
2021/03/30 03:41:34;;;;;;;34.67;16.98;;;;;;;;;;5058282;28;20060;-85
2021/03/30 03:44:00;;;;;;;31.45;17.92;;;;;;;;;;5058292;28;20481;-85
2021/03/30 03:46:26;;;;;;;37.00;18.42;;;;;;;;;;5058253;28;20335;-86
2021/03/30 03:48:52;;;;;;;43.22;20.17;;;;;;;;;;5058249;28;20032;-86
2021/03/30 03:51:19;;;;;;;46.13;22.92;;;;;;;;;;5058071;28;20056;-86
2021/03/30 03:53:47;;;;;;;48.75;23.45;;;;;;;;;;5074071;28;20037;-85
2021/03/30 03:56:16;;;;;;;53.47;23.70;;;;;;;;;;5058083;28;20407;-86
2021/03/30 03:58:47;;;;;;;50.78;23.75;;;;;;;;;;5058045;28;20025;-86
2021/03/30 04:01:20;;;;;;;47.55;22.52;;;;;;;;;;5057983;28;20021;-85
2021/03/30 04:03:57;;;;;;;47.38;23.42;;;;;;;;;;5057964;28;20049;-86
2021/03/30 04:06:27;;;;;;;48.17;23.30;;;;;;;;;;5057890;28;20024;-86
2021/03/30 04:08:56;;;;;;;49.92;24.13;;;;;;;;;;5058141;28;20036;-86
2021/03/30 04:11:22;;;;;;;55.03;26.42;;;;;;;;;;5058007;28;20091;-86
2021/03/30 04:13:51;;;;;;;63.47;30.00;;;;;;;;;;5058076;28;20018;-87
2021/03/30 04:16:18;;;;;;;56.60;28.55;;;;;;;;;;5073696;28;20029;-87
2021/03/30 04:18:44;;;;;;;60.03;30.05;;;;;;;;;;5058028;28;20024;-87
2021/03/30 04:21:12;;;;;;;70.00;33.25;;;;;;;;;;5073448;28;20067;-89
2021/03/30 04:23:45;;;;;;;74.57;34.92;;;;;;;;;;5057913;28;20100;-89
2021/03/30 04:26:11;;;;;;;;;;;;;;;;;;5058146;28;20100;-88
2021/03/30 04:28:37;;;;;;;77.18;37.72;;;;;;;;;;5057469;28;19939;-86
2021/03/30 04:31:03;;;;;;;82.15;37.75;;;;;;;;;;5057391;28;20025;-86
2021/03/30 04:33:30;;;;;;;69.03;33.65;;;;;;;;;;5057597;28;20108;-85
2021/03/30 04:35:56;;;;;;;60.28;30.30;;;;;;;;;;5057379;28;20408;-86
2021/03/30 04:38:22;;;;;;;53.42;26.05;;;;;;;;;;5073602;28;20044;-86
2021/03/30 04:40:54;;;;;;;57.90;25.58;;;;;;;;;;5057810;28;20037;-87
2021/03/30 04:43:24;;;;;;;47.17;24.45;;;;;;;;;;5057619;28;20048;-86
2021/03/30 04:45:50;;;;;;;57.13;29.30;;;;;;;;;;5073207;28;20038;-87
2021/03/30 04:48:16;;;;;;;73.05;36.53;;;;;;;;;;5073193;28;20028;-88
2021/03/30 04:50:43;;;;;;;84.40;42.25;;;;;;;;;;5057736;28;20303;-87
2021/03/30 04:53:09;;;;;;;110.63;52.35;;;;;;;;;;5057329;28;20025;-87
2021/03/30 04:55:35;;;;;;;130.13;59.67;;;;;;;;;;5071002;28;20041;-86
2021/03/30 05:01:05;;;;;;;99.38;48.40;;;;;;;;;;5049864;28;20082;-87
2021/03/30 05:03:31;;;;;;;79.93;39.03;;;;;;;;;;5054163;28;20033;-85
2021/03/30 05:05:57;;;;;;;69.80;33.08;;;;;;;;;;5051251;28;20033;-86
2021/03/30 05:08:23;;;;;;;69.70;30.65;;;;;;;;;;5037133;28;20403;-86
2021/03/30 05:10:52;;;;;;;64.38;30.00;;;;;;;;;;5045242;28;20025;-90
2021/03/30 05:13:18;;;;;;;237.02;88.15;;;;;;;;;;5044581;28;20021;-82
2021/03/30 05:15:44;;;;;;;217.32;85.03;;;;;;;;;;5056775;28;20036;-80
2021/03/30 05:18:10;;;;;;;131.57;56.47;;;;;;;;;;5056122;28;20348;-81
2021/03/30 05:20:36;;;;;;;122.72;51.83;;;;;;;;;;5056535;28;20025;-80
2021/03/30 05:23:02;;;;;;;114.45;51.13;;;;;;;;;;5056205;28;20025;-80
2021/03/30 05:25:28;;;;;;;124.03;52.55;;;;;;;;;;5055826;28;20025;-80
2021/03/30 05:27:55;;;;;;;114.90;51.58;;;;;;;;;;5056212;28;20395;-80
2021/03/30 05:30:21;;;;;;;87.82;45.10;;;;;;;;;;5054886;28;20347;-80
2021/03/30 05:32:47;;;;;;;95.45;44.45;;;;;;;;;;5057062;28;20041;-81
2021/03/30 05:35:13;;;;;;;75.22;40.55;;;;;;;;;;5060151;28;20021;-80
2021/03/30 05:37:40;;;;;;;75.30;37.35;;;;;;;;;;5060060;28;20420;-80
2021/03/30 05:40:07;;;;;;;83.57;43.40;;;;;;;;;;5060236;28;20044;-81
2021/03/30 05:42:33;;;;;;;96.25;48.53;;;;;;;;;;5059899;28;20036;-80
2021/03/30 05:45:00;;;;;;;88.35;45.95;;;;;;;;;;5059590;28;20041;-85
2021/03/30 05:47:28;;;;;;;86.43;48.80;;;;;;;;;;5059712;28;20021;-80
2021/03/30 05:49:54;;;;;;;87.10;47.75;;;;;;;;;;5075307;28;20133;-80
2021/03/30 05:52:43;;;;;;;177.27;72.75;;;;;;;;;;5075443;28;20107;-82
2021/03/30 05:55:10;;;;;;;219.60;93.32;;;;;;;;;;5075348;28;20071;-80
2021/03/30 05:57:38;;;;;;;256.90;108.75;;;;;;;;;;5059678;28;20021;-80
2021/03/30 06:00:05;;;;;;;211.57;78.00;;;;;;;;;;5059674;28;20034;-80
2021/03/30 06:02:36;;;;;;;193.95;65.60;;;;;;;;;;5059603;28;20145;-80
2021/03/30 06:05:02;;;;;;;145.80;48.53;;;;;;;;;;5057968;28;20033;-80
2021/03/30 06:07:29;;;;;;;164.60;48.40;;;;;;;;;;5058345;28;20021;-80
2021/03/30 06:09:57;;;;;;;118.65;38.97;;;;;;;;;;5059442;28;20403;-80
2021/03/30 06:12:23;;;;;;;62.80;27.33;;;;;;;;;;5059545;28;20082;-80
2021/03/30 06:14:49;;;;;;;51.15;24.42;;;;;;;;;;5059463;28;20021;-80
2021/03/30 06:17:17;;;;;;;43.15;20.38;;;;;;;;;;5058829;28;20025;-80
2021/03/30 06:19:47;;;;;;;36.05;17.70;;;;;;;;;;5059256;28;20029;-80
2021/03/30 06:22:13;;;;;;;33.88;19.33;;;;;;;;;;5059135;28;20024;-80
2021/03/30 06:24:39;;;;;;;34.58;19.05;;;;;;;;;;5059128;28;20021;-80
2021/03/30 06:27:05;;;;;;;39.47;19.45;;;;;;;;;;5059243;28;20021;-80
2021/03/30 06:29:38;;;;;;;38.80;20.20;;;;;;;;;;5058946;28;20489;-80
2021/03/30 06:32:08;;;;;;;41.80;21.60;;;;;;;;;;5058311;28;20042;-80
2021/03/30 06:34:35;;;;;;;43.83;21.77;;;;;;;;;;5057500;28;20044;-80
2021/03/30 06:37:01;;;;;;;57.00;26.65;;;;;;;;;;5059070;28;20021;-80
2021/03/30 06:39:38;;;;;;;50.42;25.13;;;;;;;;;;5058537;28;20415;-80
2021/03/30 06:42:11;;;;;;;48.15;23.45;;;;;;;;;;5058863;28;20029;-80
2021/03/30 06:44:38;;;;;;;61.00;28.33;;;;;;;;;;5058351;28;20037;-80
2021/03/30 06:47:04;;;;;;;89.03;37.13;;;;;;;;;;5058853;28;20017;-80
2021/03/30 06:49:31;;;;;;;104.55;45.92;;;;;;;;;;5058636;28;20029;-80
2021/03/30 06:51:59;;;;;;;86.13;44.08;;;;;;;;;;5057578;28;20025;-80
2021/03/30 06:54:25;;;;;;;67.40;35.72;;;;;;;;;;5058368;28;20029;-80
2021/03/30 06:56:56;;;;;;;83.22;40.00;;;;;;;;;;5058496;28;20017;-80
2021/03/30 06:59:22;;;;;;;68.15;36.35;;;;;;;;;;5058429;28;20032;-80
2021/03/30 07:01:50;;;;;;;66.90;36.00;;;;;;;;;;5058542;28;20446;-80
2021/03/30 07:04:17;;;;;;;63.95;33.78;;;;;;;;;;5058396;28;20029;-80
2021/03/30 07:06:48;;;;;;;61.13;33.22;;;;;;;;;;5058616;28;20025;-80
2021/03/30 07:09:15;;;;;;;63.28;33.97;;;;;;;;;;5058195;28;20071;-80
2021/03/30 07:11:41;;;;;;;68.55;34.75;;;;;;;;;;5056625;28;20095;-80
2021/03/30 07:14:07;;;;;;;69.30;32.70;;;;;;;;;;5058418;28;20025;-80
2021/03/30 07:16:37;;;;;;;63.42;30.58;;;;;;;;;;5058192;28;20028;-80
2021/03/30 07:19:04;;;;;;;54.85;30.95;;;;;;;;;;5058163;28;20035;-80
2021/03/30 07:21:35;;;;;;;55.95;30.70;;;;;;;;;;5056779;28;20078;-80
2021/03/30 07:24:06;;;;;;;57.45;32.58;;;;;;;;;;5056667;28;20482;-80
2021/03/30 07:26:36;;;;;;;55.40;31.48;;;;;;;;;;5057770;28;20029;-80
2021/03/30 07:29:04;;;;;;;61.72;30.05;;;;;;;;;;5057989;28;20032;-80
2021/03/30 07:31:33;;;;;;;56.88;30.75;;;;;;;;;;5057829;28;20028;-80
2021/03/30 07:34:01;;;;;;;55.47;30.80;;;;;;;;;;5057858;28;20040;-80
2021/03/30 07:36:28;;;;;;;50.72;30.25;;;;;;;;;;5057741;28;20029;-80
2021/03/30 07:38:57;;;;;;;56.45;31.20;;;;;;;;;;5057741;28;20043;-79
2021/03/30 07:41:24;;;;;;;56.38;30.00;;;;;;;;;;5057515;28;20024;-80
2021/03/30 07:43:51;;;;;;;52.35;29.35;;;;;;;;;;5057536;28;20052;-80
2021/03/30 07:46:19;;;;;;;52.63;30.08;;;;;;;;;;5057468;28;20112;-80
2021/03/30 07:48:46;;;;;;;56.40;29.45;;;;;;;;;;5057484;28;20029;-80
2021/03/30 07:51:14;;;;;;;48.80;27.60;;;;;;;;;;5056455;28;20045;-80
2021/03/30 07:53:43;;;;;;;52.75;28.95;;;;;;;;;;5057761;28;20032;-80
2021/03/30 07:56:32;;;;;;;49.17;28.48;;;;;;;;;;5055471;28;20029;-80
2021/03/30 07:58:58;;;;;;;48.03;28.50;;;;;;;;;;5018958;28;20065;-80
2021/03/30 08:01:31;;;;;;;56.25;29.02;;;;;;;;;;5035532;28;20111;-80
2021/03/30 08:03:58;;;;;;;57.65;29.23;;;;;;;;;;5035490;28;20041;-80
2021/03/30 08:06:27;;;;;;;50.53;28.10;;;;;;;;;;5035352;28;20040;-80
2021/03/30 08:08:54;;;;;;;47.83;28.73;;;;;;;;;;5035376;28;20079;-80
2021/03/30 08:11:39;;;;;;;58.95;29.40;;;;;;;;;;5035344;28;20033;-80
2021/03/30 08:14:06;;;;;;;60.38;28.83;;;;;;;;;;5035551;28;20024;-80
2021/03/30 08:16:34;;;;;;;53.65;29.98;;;;;;;;;;5034939;28;20045;-80
2021/03/30 08:19:00;;;;;;;48.05;28.52;;;;;;;;;;5035088;28;20025;-80
2021/03/30 08:21:26;;;;;;;54.05;28.48;;;;;;;;;;5035088;28;20052;-80
2021/03/30 08:23:52;;;;;;;48.85;29.10;;;;;;;;;;5035175;28;20076;-80
2021/03/30 08:26:18;;;;;;;56.30;30.55;;;;;;;;;;5034710;28;20025;-80
2021/03/30 08:29:03;;;;;;;53.67;30.63;;;;;;;;;;5035018;28;20061;-80
2021/03/30 08:31:35;;;;;;;53.45;30.63;;;;;;;;;;5035123;28;20415;-80
2021/03/30 08:34:06;;;;;;;55.60;30.05;;;;;;;;;;5018445;28;20037;-80
2021/03/30 08:36:34;;;;;;;57.38;33.25;;;;;;;;;;5036231;28;20041;-78
2021/03/30 08:39:02;;;;;;;53.72;30.58;;;;;;;;;;5035665;28;20128;-79
2021/03/30 08:41:45;;;;;;;59.03;32.17;;;;;;;;;;5036893;28;20030;-79
2021/03/30 08:44:11;;;;;;;55.80;31.55;;;;;;;;;;5036711;28;20048;-78
2021/03/30 08:46:38;;;;;;;47.65;27.50;;;;;;;;;;5036757;28;20034;-79
2021/03/30 08:49:22;;;;;;;53.35;29.88;;;;;;;;;;5036843;28;20316;-79
2021/03/30 08:51:48;;;;;;;45.65;29.02;;;;;;;;;;5036808;28;20028;-79
2021/03/30 08:54:15;;;;;;;42.88;27.63;;;;;;;;;;5035631;28;20071;-80
2021/03/30 08:56:44;;;;;;;42.60;25.35;;;;;;;;;;5047593;28;20025;-80
2021/03/30 08:59:11;;;;;;;55.38;28.02;;;;;;;;;;5056573;28;20021;-80
2021/03/30 09:01:37;;;;;;;38.53;21.40;;;;;;;;;;5056434;28;20025;-80
2021/03/30 09:04:03;;;;;;;33.13;18.98;;;;;;;;;;5055913;28;20017;-80
2021/03/30 09:06:34;;;;;;;32.65;18.35;;;;;;;;;;5056471;28;20040;-81
2021/03/30 09:09:00;;;;;;;31.58;18.23;;;;;;;;;;5060514;28;20036;-81
2021/03/30 09:11:30;;;;;;;27.63;16.90;;;;;;;;;;5060492;28;20028;-80
2021/03/30 09:14:03;;;;;;;28.50;16.88;;;;;;;;;;5060643;28;20100;-80
2021/03/30 09:16:29;;;;;;;37.83;17.70;;;;;;;;;;5060374;28;20025;-81
2021/03/30 09:19:14;;;;;;;35.47;18.67;;;;;;;;;;5058930;28;20037;-81
2021/03/30 09:21:41;;;;;;;33.83;19.35;;;;;;;;;;5060429;28;20411;-81
2021/03/30 09:24:15;;;;;;;31.65;19.40;;;;;;;;;;5060416;28;20033;-81
2021/03/30 09:26:42;;;;;;;33.20;20.38;;;;;;;;;;5060084;28;20025;-81
2021/03/30 09:29:08;;;;;;;38.92;22.45;;;;;;;;;;5060150;28;20021;-81
2021/03/30 09:31:35;;;;;;;33.17;20.45;;;;;;;;;;5059952;28;20063;-81
2021/03/30 09:34:01;;;;;;;39.92;21.65;;;;;;;;;;5059872;28;20108;-81
2021/03/30 09:36:28;;;;;;;35.83;20.65;;;;;;;;;;5058583;28;20033;-81
2021/03/30 09:38:57;;;;;;;38.33;20.35;;;;;;;;;;5058590;28;20041;-81
2021/03/30 09:41:38;;;;;;;29.42;18.50;;;;;;;;;;5058594;28;20044;-81
2021/03/30 09:44:06;;;;;;;31.93;18.47;;;;;;;;;;5059409;28;20033;-80
2021/03/30 09:46:32;;;;;;;32.30;18.80;;;;;;;;;;5060098;28;20029;-81
2021/03/30 09:48:58;;;;;;;31.48;18.20;;;;;;;;;;5075342;28;20324;-81
2021/03/30 09:51:24;;;;;;;31.45;17.42;;;;;;;;;;5060059;28;20044;-81
2021/03/30 09:53:51;;;;;;;29.98;17.33;;;;;;;;;;5059986;28;20044;-81
2021/03/30 09:56:23;;;;;;;35.67;20.55;;;;;;;;;;5059193;28;20032;-81
2021/03/30 09:58:56;;;;;;;35.28;24.00;;;;;;;;;;5059409;28;20040;-81
2021/03/30 10:01:22;;;;;;;21.90;14.00;;;;;;;;;;5059894;28;20040;-81
2021/03/30 10:03:49;;;;;;;20.50;12.55;;;;;;;;;;5059785;28;20027;-81
2021/03/30 10:06:18;;;;;;;19.45;12.27;;;;;;;;;;5059357;28;20025;-80
2021/03/30 10:08:45;;;;;;;21.13;12.02;;;;;;;;;;5059354;28;20115;-81
2021/03/30 10:11:11;;;;;;;23.50;12.00;;;;;;;;;;5058298;28;20024;-81
2021/03/30 10:13:40;;;;;;;19.17;11.02;;;;;;;;;;5059941;28;20023;-92
2021/03/30 10:16:12;;;;;;;21.58;10.82;;;;;;;;;;5058307;28;20024;-81
2021/03/30 10:18:38;;;;;;;;;;;;;;;;;;5059074;28;20475;-81
2021/03/30 10:21:04;;;;;;;18.15;8.57;;;;;;;;;;5074562;28;19905;-81
2021/03/30 10:23:34;;;;;;;15.30;7.78;;;;;;;;;;5059317;28;20048;-81
2021/03/30 10:26:10;;;;;;;14.77;6.90;;;;;;;;;;5058857;28;20036;-81
2021/03/30 10:28:36;;;;;;;17.85;7.68;;;;;;;;;;5059327;28;20016;-80
2021/03/30 10:31:14;;;;;;;21.35;7.32;;;;;;;;;;5059201;28;20029;-81
2021/03/30 10:33:44;;;;;;;16.35;7.60;;;;;;;;;;5059226;28;20100;-81
2021/03/30 10:36:13;;;;;;;13.32;7.22;;;;;;;;;;5059041;28;20051;-81
2021/03/30 10:38:41;;;;;;;14.88;7.68;;;;;;;;;;5058872;28;20079;-81
2021/03/30 10:41:11;;;;;;;19.90;9.15;;;;;;;;;;5058973;28;20025;-81
2021/03/30 10:43:38;;;;;;;19.40;8.75;;;;;;;;;;5058692;28;20041;-81
2021/03/30 10:46:20;;;;;;;21.95;8.57;;;;;;;;;;5074507;28;20327;-81
2021/03/30 10:49:05;;;;;;;44.30;27.05;;;;;;;;;;5058717;28;20108;-81
2021/03/30 10:51:33;;;;;;;19.88;10.57;;;;;;;;;;5057658;28;20033;-81
2021/03/30 10:53:59;;;;;;;11.95;6.05;;;;;;;;;;5059005;28;20043;-80
2021/03/30 10:56:26;;;;;;;14.65;6.57;;;;;;;;;;5058388;28;20357;-80
2021/03/30 10:58:52;;;;;;;18.70;6.72;;;;;;;;;;5074095;28;20037;-80
2021/03/30 11:01:18;;;;;;;17.35;10.93;;;;;;;;;;5058175;28;20083;-81
2021/03/30 11:03:44;;;;;;;19.63;8.65;;;;;;;;;;5057457;28;20127;-80
2021/03/30 11:06:10;;;;;;;15.68;8.27;;;;;;;;;;5058204;28;20470;-80
2021/03/30 11:08:36;;;;;;;17.52;8.77;;;;;;;;;;5058317;28;20031;-80
2021/03/30 11:11:02;;;;;;;15.25;8.25;;;;;;;;;;5073884;28;20035;-80
2021/03/30 11:13:28;;;;;;;19.35;7.57;;;;;;;;;;5058318;28;20025;-81
2021/03/30 11:15:54;;;;;;;12.65;6.20;;;;;;;;;;5058117;28;20036;-80
2021/03/30 11:18:20;;;;;;;15.10;7.03;;;;;;;;;;5058177;28;20028;-80
2021/03/30 11:20:47;;;;;;;14.52;6.78;;;;;;;;;;5057754;28;20032;-80
2021/03/30 11:23:13;;;;;;;14.77;7.43;;;;;;;;;;5073519;28;20032;-80
2021/03/30 11:25:39;;;;;;;14.95;8.45;;;;;;;;;;5057832;28;20052;-80
2021/03/30 11:28:10;;;;;;;14.20;6.75;;;;;;;;;;5057943;28;20033;-80
2021/03/30 11:30:50;;;;;;;13.68;6.75;;;;;;;;;;5056848;28;20066;-80
2021/03/30 11:38:12;;;;;;;21.90;8.23;;;;;;;;;;5057678;28;20033;-80
2021/03/30 11:40:39;;;;;;;60.88;34.28;;;;;;;;;;5057631;28;20049;-80
2021/03/30 11:43:06;;;;;;;21.05;12.32;;;;;;;;;;5055946;28;20043;-80
2021/03/30 11:45:32;;;;;;;17.10;10.57;;;;;;;;;;5055790;28;20049;-80
2021/03/30 11:48:00;;;;;;;26.75;18.20;;;;;;;;;;5056035;28;20040;-80
2021/03/30 11:50:26;;;;;;;11.52;7.32;;;;;;;;;;5057734;28;20017;-80
2021/03/30 11:52:52;;;;;;;14.38;7.05;;;;;;;;;;5057423;28;20100;-81
2021/03/30 11:55:18;;;;;;;14.27;8.18;;;;;;;;;;5072848;28;20086;-80
2021/03/30 11:57:44;;;;;;;14.38;7.80;;;;;;;;;;5057251;28;20036;-81
2021/03/30 12:00:11;;;;;;;14.02;7.30;;;;;;;;;;5057242;28;20021;-81
2021/03/30 12:02:47;;;;;;;21.92;16.13;;;;;;;;;;5114667;27;20384;-79
2021/03/30 12:05:13;;;;;;;11.93;7.10;;;;;;;;;;5114621;28;20449;-80
2021/03/30 12:07:40;;;;;;;14.05;6.10;;;;;;;;;;5114421;28;20406;-79
2021/03/30 12:10:06;;;;;;;11.32;7.25;;;;;;;;;;5114770;28;20024;-79
2021/03/30 12:12:33;;;;;;;14.60;6.70;;;;;;;;;;5113406;28;20417;-79
2021/03/30 12:14:59;;;;;;;15.55;6.05;;;;;;;;;;5114497;28;20031;-79
2021/03/30 12:17:25;;;;;;;13.25;6.60;;;;;;;;;;5113580;28;20425;-80
2021/03/30 12:19:51;;;;;;;16.92;7.70;;;;;;;;;;5114417;28;20028;-78
2021/03/30 12:22:17;;;;;;;24.05;13.93;;;;;;;;;;5114527;28;20062;-77
2021/03/30 12:24:44;;;;;;;13.18;6.18;;;;;;;;;;5114532;28;20023;-78
2021/03/30 12:27:11;;;;;;;12.93;5.93;;;;;;;;;;5114055;28;20027;-77
2021/03/30 12:29:41;;;;;;;15.35;6.55;;;;;;;;;;5114210;28;20026;-78
2021/03/30 12:32:12;;;;;;;13.55;6.57;;;;;;;;;;5113410;28;20034;-78
2021/03/30 12:34:40;;;;;;;12.75;5.82;;;;;;;;;;5113211;28;20096;-80
2021/03/30 12:37:06;;;;;;;15.55;6.35;;;;;;;;;;5113964;28;20020;-80
2021/03/30 12:39:32;;;;;;;14.45;7.63;;;;;;;;;;5114113;28;20432;-78
2021/03/30 12:41:59;;;;;;;9.82;5.60;;;;;;;;;;5113826;28;20114;-78
2021/03/30 12:44:26;;;;;;;10.23;6.10;;;;;;;;;;5112905;28;20028;-79
2021/03/30 12:46:52;;;;;;;17.30;8.63;;;;;;;;;;5114122;28;20032;-79
2021/03/30 12:49:21;;;;;;;13.80;7.55;;;;;;;;;;5113950;28;20016;-79
2021/03/30 12:51:47;;;;;;;17.60;7.70;;;;;;;;;;5113885;28;20026;-79
2021/03/30 12:54:13;;;;;;;14.88;6.45;;;;;;;;;;5113897;28;20093;-79
2021/03/30 12:56:39;;;;;;;14.10;6.40;;;;;;;;;;5113652;28;20400;-78
2021/03/30 12:59:05;;;;;;;17.55;6.78;;;;;;;;;;5113650;28;20020;-78
2021/03/30 13:01:31;;;;;;;14.70;7.03;;;;;;;;;;5113237;28;20071;-79
2021/03/30 13:03:58;;;;;;;16.10;7.35;;;;;;;;;;5113978;28;20050;-79
2021/03/30 13:06:24;;;;;;;14.05;6.55;;;;;;;;;;5113645;28;20099;-78
2021/03/30 13:08:50;;;;;;;15.30;7.35;;;;;;;;;;5113688;28;20047;-79
2021/03/30 13:11:16;;;;;;;15.90;7.18;;;;;;;;;;5113440;28;20024;-79
2021/03/30 13:13:42;;;;;;;17.92;7.95;;;;;;;;;;5101126;28;20374;-79
2021/03/30 13:16:08;;;;;;;13.43;8.10;;;;;;;;;;5099740;28;20028;-78
2021/03/30 13:18:35;;;;;;;15.07;7.70;;;;;;;;;;5100046;28;20095;-79
2021/03/30 13:21:01;;;;;;;14.90;7.20;;;;;;;;;;5098691;28;20032;-79
2021/03/30 13:23:27;;;;;;;17.80;7.15;;;;;;;;;;5099703;28;20438;-79
2021/03/30 13:25:53;;;;;;;22.75;10.63;;;;;;;;;;5099475;28;20017;-78
2021/03/30 13:28:19;;;;;;;15.95;7.70;;;;;;;;;;5098560;28;20449;-79
2021/03/30 13:30:47;;;;;;;15.30;7.85;;;;;;;;;;5099480;28;20032;-79
2021/03/30 13:33:13;;;;;;;21.65;8.55;;;;;;;;;;5098354;28;20031;-79
2021/03/30 13:35:39;;;;;;;18.20;9.68;;;;;;;;;;5098337;28;20040;-78
2021/03/30 13:38:05;;;;;;;17.23;9.45;;;;;;;;;;5099336;28;20024;-79
2021/03/30 13:40:32;;;;;;;18.25;8.95;;;;;;;;;;5099244;28;20429;-79
2021/03/30 13:42:59;;;;;;;15.15;6.93;;;;;;;;;;5099411;28;20016;-78
2021/03/30 13:45:26;;;;;;;17.88;6.85;;;;;;;;;;5099196;28;20016;-78
2021/03/30 13:47:52;;;;;;;19.58;7.65;;;;;;;;;;5098247;28;20107;-79
2021/03/30 13:50:18;;;;;;;11.27;6.75;;;;;;;;;;5099353;28;20103;-79
2021/03/30 13:52:44;;;;;;;20.75;8.10;;;;;;;;;;5099607;28;20429;-79
2021/03/30 13:55:12;;;;;;;14.38;7.32;;;;;;;;;;5099148;28;20078;-78
2021/03/30 13:57:38;;;;;;;15.05;7.20;;;;;;;;;;5096707;28;20066;-79
2021/03/30 14:00:06;;;;;;;10.57;6.57;;;;;;;;;;5098972;28;20119;-79
2021/03/30 14:02:32;;;;;;;11.93;5.93;;;;;;;;;;5098541;28;20052;-79
2021/03/30 14:04:58;;;;;;;12.20;6.70;;;;;;;;;;5098872;28;20065;-79
2021/03/30 14:07:24;;;;;;;9.73;5.60;;;;;;;;;;5098798;28;20103;-79
2021/03/30 14:09:50;;;;;;;11.48;5.80;;;;;;;;;;5098976;28;20016;-79
2021/03/30 14:12:42;;;;;;;15.32;5.97;;;;;;;;;;5098715;28;20445;-79
2021/03/30 14:15:08;;;;;;;16.85;7.68;;;;;;;;;;5098150;28;20035;-78
2021/03/30 14:17:38;;;;;;;18.55;10.40;;;;;;;;;;5098761;28;20055;-79
2021/03/30 14:20:06;;;;;;;14.95;6.75;;;;;;;;;;5098711;28;20024;-79
2021/03/30 14:22:34;;;;;;;10.20;4.70;;;;;;;;;;5098490;28;20032;-79
2021/03/30 14:25:00;;;;;;;18.25;5.40;;;;;;;;;;5097584;28;20073;-79
2021/03/30 14:27:28;;;;;;;14.07;5.00;;;;;;;;;;5098062;28;20103;-79
2021/03/30 14:29:54;;;;;;;13.60;4.78;;;;;;;;;;5098690;28;20023;-79
2021/03/30 14:32:30;;;;;;;10.18;5.18;;;;;;;;;;5098355;28;20024;-79
2021/03/30 14:34:57;;;;;;;10.57;4.93;;;;;;;;;;5097289;28;20028;-79